Time;durP1;ratioP1;P1;durP2;ratioP2;P2;SDS_P1;SDS_P2;PMS_P1;PMS_P2;Temp;Humidity;BMP_temperature;BMP_pressure;BME280_temperature;BME280_humidity;BME280_pressure;Samples;Min_cycle;Max_cycle;Signal;HPM_P1;HPM_P2
2022/12/14 00:00:08;;;;;;;16.93;9.60;;;;;;;-2.85;63.05;100072.13;677895;29;1144;-86
2022/12/14 00:00:33;;;;;;;16.30;9.13;;;;;;;-2.82;62.94;100068.91;677506;29;1334;-86
2022/12/14 00:00:54;;;;;;;17.33;9.43;;;;;;;-2.80;62.73;100068.25;675139;29;1067;-86
2022/12/14 00:01:21;;;;;;;15.57;9.43;;;;;;;-2.72;62.96;100081.53;675142;29;1281;-86
2022/12/14 00:01:41;;;;;;;15.38;9.63;;;;;;;-2.80;62.89;100065.69;677748;29;1372;-86
2022/12/14 00:02:02;;;;;;;14.30;9.20;;;;;;;-2.81;63.11;100060.47;677843;29;1168;-86
2022/12/14 00:02:23;;;;;;;15.27;9.10;;;;;;;-2.82;63.04;100062.16;677728;29;1278;-86
2022/12/14 00:02:43;;;;;;;14.45;8.80;;;;;;;-2.78;62.70;100063.25;675261;29;786;-87
2022/12/14 00:03:04;;;;;;;16.38;9.15;;;;;;;-2.79;62.67;100064.91;675215;29;1174;-86
2022/12/14 00:03:25;;;;;;;15.77;9.13;;;;;;;-2.71;62.64;100075.69;672386;29;1172;-86
2022/12/14 00:03:46;;;;;;;16.77;9.57;;;;;;;-2.74;62.62;100056.69;675355;29;1358;-87
2022/12/14 00:04:07;;;;;;;15.00;9.30;;;;;;;-2.62;62.45;100083.06;677882;29;1049;-87
2022/12/14 00:04:27;;;;;;;14.37;9.10;;;;;;;-2.72;62.56;100062.78;677768;29;1059;-86
2022/12/14 00:04:48;;;;;;;13.60;8.77;;;;;;;-2.78;62.60;100061.56;678083;29;808;-86
2022/12/14 00:05:08;;;;;;;13.20;8.73;;;;;;;-2.76;62.41;100061.69;675264;29;1161;-87
2022/12/14 00:05:29;;;;;;;12.33;8.60;;;;;;;-2.79;62.35;100059.81;677564;29;1203;-86
2022/12/14 00:05:50;;;;;;;13.20;8.30;;;;;;;-2.80;62.49;100059.69;680490;29;1190;-86
2022/12/14 00:06:18;;;;;;;13.60;8.35;;;;;;;-2.70;62.10;100076.53;677364;29;1465;-86
2022/12/14 00:06:38;;;;;;;16.33;8.80;;;;;;;-2.82;62.27;100056.13;677693;29;1167;-86
2022/12/14 00:06:59;;;;;;;15.85;9.00;;;;;;;-2.80;62.22;100058.03;677706;29;859;-86
2022/12/14 00:07:19;;;;;;;15.40;8.97;;;;;;;-2.78;62.17;100056.47;680215;29;1137;-87
2022/12/14 00:07:40;;;;;;;14.87;8.80;;;;;;;-2.79;62.14;100053.81;685741;28;1300;-86
2022/12/14 00:08:01;;;;;;;15.07;8.30;;;;;;;-2.82;62.21;100051.94;683237;29;1095;-87
2022/12/14 00:08:21;;;;;;;14.00;7.88;;;;;;;-2.77;62.07;100053.13;675008;29;1132;-86
2022/12/14 00:08:42;;;;;;;13.60;7.67;;;;;;;-2.73;62.11;100063.56;677837;29;1219;-86
2022/12/14 00:09:03;;;;;;;12.07;8.10;;;;;;;-2.80;62.17;100041.81;680380;29;1277;-86
2022/12/14 00:09:25;;;;;;;13.82;8.85;;;;;;;-2.68;62.26;100067.31;680285;29;1067;-86
2022/12/14 00:09:46;;;;;;;15.85;8.73;;;;;;;-2.79;62.12;100049.59;675095;29;785;-87
2022/12/14 00:10:07;;;;;;;16.45;8.32;;;;;;;-2.74;62.14;100051.59;675181;29;1342;-87
2022/12/14 00:10:28;;;;;;;16.45;8.65;;;;;;;-2.71;61.93;100056.91;672469;29;996;-87
2022/12/14 00:10:49;;;;;;;15.95;9.10;;;;;;;-2.75;62.01;100044.69;672653;29;1087;-86
2022/12/14 00:11:13;;;;;;;15.30;9.27;;;;;;;-2.66;62.09;100061.53;680335;29;1233;-86
2022/12/14 00:11:33;;;;;;;14.07;8.75;;;;;;;-2.81;61.75;100030.72;680223;29;1340;-86
2022/12/14 00:11:54;;;;;;;13.20;8.57;;;;;;;-2.72;61.72;100045.78;680354;29;1295;-87
2022/12/14 00:12:14;;;;;;;13.07;8.30;;;;;;;-2.69;61.72;100045.09;682977;29;1150;-86
2022/12/14 00:12:35;;;;;;;13.57;8.65;;;;;;;-2.68;61.93;100052.00;680031;29;1233;-86
2022/12/14 00:12:56;;;;;;;13.80;8.53;;;;;;;-2.69;61.87;100047.66;679824;29;1222;-86
2022/12/14 00:13:16;;;;;;;12.98;8.35;;;;;;;-2.69;61.79;100047.66;677475;29;981;-86
2022/12/14 00:13:38;;;;;;;14.10;8.50;;;;;;;-2.57;61.49;100065.50;677540;29;1481;-86
2022/12/14 00:14:01;;;;;;;13.43;8.15;;;;;;;-2.67;61.81;100039.34;677717;29;1268;-86
2022/12/14 00:14:21;;;;;;;13.18;8.06;;;;;;;-2.68;62.02;100044.31;675041;29;1176;-86
2022/12/14 00:14:42;;;;;;;11.70;7.83;;;;;;;-2.66;61.69;100045.34;675299;29;836;-86
2022/12/14 00:15:03;;;;;;;11.43;7.75;;;;;;;-2.57;61.74;100066.41;677860;29;1154;-86
2022/12/14 00:15:24;;;;;;;11.88;7.90;;;;;;;-2.64;61.48;100043.78;674995;29;1255;-86
2022/12/14 00:15:45;;;;;;;13.95;8.30;;;;;;;-2.58;61.73;100061.19;675401;29;813;-86
2022/12/14 00:16:11;;;;;;;13.60;8.40;;;;;;;-2.64;61.59;100049.75;675085;29;1139;-86
2022/12/14 00:16:33;;;;;;;14.38;8.20;;;;;;;-2.63;61.58;100045.53;674937;29;1079;-86
2022/12/14 00:16:54;;;;;;;15.38;8.13;;;;;;;-2.55;61.05;100052.06;675008;29;1260;-86
2022/12/14 00:17:15;;;;;;;16.20;8.45;;;;;;;-2.60;61.05;100040.63;675061;29;1184;-87
2022/12/14 00:17:35;;;;;;;14.98;8.45;;;;;;;-2.64;61.28;100049.75;669787;29;1915;-87
2022/12/14 00:17:56;;;;;;;13.70;8.50;;;;;;;-2.56;61.31;100055.41;675165;29;1381;-86
2022/12/14 00:18:16;;;;;;;13.65;8.43;;;;;;;-2.65;60.96;100050.53;677584;29;1207;-86
2022/12/14 00:18:38;;;;;;;13.95;8.20;;;;;;;-2.57;61.18;100057.84;672417;29;1191;-86
2022/12/14 00:19:00;;;;;;;13.23;8.05;;;;;;;-2.63;60.91;100045.53;669945;29;1171;-86
2022/12/14 00:19:20;;;;;;;12.48;7.80;;;;;;;-2.67;60.85;100039.34;672423;29;1008;-86
2022/12/14 00:19:41;;;;;;;12.43;7.72;;;;;;;-2.64;60.78;100043.78;677732;29;1230;-86
2022/12/14 00:20:01;;;;;;;13.40;7.95;;;;;;;-2.63;60.73;100040.44;672662;29;1169;-86
2022/12/14 00:20:22;;;;;;;13.10;8.00;;;;;;;-2.65;60.70;100049.66;672385;29;1092;-86
2022/12/14 00:20:43;;;;;;;13.57;8.30;;;;;;;-2.68;60.81;100036.66;672641;29;896;-86
2022/12/14 00:21:09;;;;;;;13.52;8.07;;;;;;;-2.66;60.74;100046.22;675084;29;1143;-86
2022/12/14 00:21:30;;;;;;;15.38;8.27;;;;;;;-2.70;60.75;100049.34;672258;29;1218;-86
2022/12/14 00:21:51;;;;;;;15.50;8.20;;;;;;;-2.74;60.81;100031.16;672622;29;1169;-86
2022/12/14 00:22:11;;;;;;;12.80;8.40;;;;;;;-2.68;60.97;100055.44;670138;29;1057;-86
2022/12/14 00:22:32;;;;;;;12.27;8.27;;;;;;;-2.74;61.04;100043.94;672384;29;1238;-86
2022/12/14 00:22:56;;;;;;;12.50;8.00;;;;;;;-2.78;61.05;100035.16;675287;29;1150;-86
2022/12/14 00:23:17;;;;;;;14.38;7.80;;;;;;;-2.77;60.81;100042.91;677692;29;1232;-86
2022/12/14 00:23:39;;;;;;;14.23;7.60;;;;;;;-2.81;60.73;100033.28;677641;29;1210;-86
2022/12/14 00:23:59;;;;;;;13.07;7.85;;;;;;;-2.75;60.80;100045.56;680404;29;1198;-87
2022/12/14 00:24:20;;;;;;;11.20;7.70;;;;;;;-2.79;60.99;100041.06;682943;29;1221;-86
2022/12/14 00:24:40;;;;;;;10.70;7.70;;;;;;;-2.79;61.05;100043.59;683161;29;1221;-86
2022/12/14 00:25:01;;;;;;;11.55;7.60;;;;;;;-2.82;60.89;100039.16;683310;29;766;-85
2022/12/14 00:25:23;;;;;;;13.10;7.75;;;;;;;-2.75;60.95;100052.34;677928;29;1107;-86
2022/12/14 00:25:43;;;;;;;13.43;7.78;;;;;;;-2.81;60.81;100046.03;672833;29;841;-86
2022/12/14 00:26:24;;;;;;;13.50;8.25;;;;;;;-2.81;61.05;100043.50;675595;29;1440;-86
2022/12/14 00:26:44;;;;;;;13.15;8.20;;;;;;;-2.79;61.16;100049.59;675653;29;813;-86
2022/12/14 00:27:05;;;;;;;13.87;7.93;;;;;;;-2.79;61.11;100043.59;675586;29;1212;-86
2022/12/14 00:27:25;;;;;;;13.50;8.10;;;;;;;-2.74;61.20;100051.59;675486;29;1067;-86
2022/12/14 00:27:46;;;;;;;12.93;7.93;;;;;;;-2.80;60.91;100045.25;679710;29;1132;-86
2022/12/14 00:28:07;;;;;;;13.00;8.38;;;;;;;-2.77;60.95;100049.69;678314;29;1043;-87
2022/12/14 00:28:27;;;;;;;13.10;8.20;;;;;;;-2.71;60.92;100056.91;675809;29;1239;-87
2022/12/14 00:28:51;;;;;;;13.10;8.20;;;;;;;-2.71;60.88;100051.78;678689;29;1272;-86
2022/12/14 00:29:11;;;;;;;12.65;8.00;;;;;;;-2.77;61.00;100047.16;681207;29;1181;-85
2022/12/14 00:29:32;;;;;;;11.90;7.70;;;;;;;-2.79;61.24;100041.06;678606;29;911;-87
2022/12/14 00:29:52;;;;;;;12.52;8.00;;;;;;;-2.75;61.00;100045.56;678639;29;1073;-86
2022/12/14 00:30:16;;;;;;;15.07;8.63;;;;;;;-2.79;61.09;100038.50;678547;29;1114;-86
2022/12/14 00:30:36;;;;;;;15.55;8.90;;;;;;;-2.71;61.13;100046.69;675960;29;1210;-86
2022/12/14 00:30:57;;;;;;;14.50;8.55;;;;;;;-2.75;60.98;100048.13;678522;29;1205;-86
2022/12/14 00:31:18;;;;;;;13.00;7.90;;;;;;;-2.78;61.15;100036.03;681070;29;1221;-85
2022/12/14 00:31:39;;;;;;;11.88;7.53;;;;;;;-2.72;60.96;100048.34;678443;29;1226;-86
2022/12/14 00:32:00;;;;;;;11.63;7.78;;;;;;;-2.77;61.06;100040.34;678531;29;1183;-86
2022/12/14 00:32:20;;;;;;;12.17;7.90;;;;;;;-2.74;60.89;100041.38;677942;29;1151;-86
2022/12/14 00:32:41;;;;;;;13.70;8.20;;;;;;;-2.74;60.92;100044.78;683835;29;974;-86
2022/12/14 00:33:02;;;;;;;14.20;8.00;;;;;;;-2.73;60.81;100043.13;681349;29;1018;-84
2022/12/14 00:33:22;;;;;;;14.15;8.15;;;;;;;-2.68;60.81;100044.31;680123;29;1122;-87
2022/12/14 00:33:43;;;;;;;13.05;7.97;;;;;;;-2.78;60.88;100035.16;681061;29;1186;-86
2022/12/14 00:34:04;;;;;;;13.07;7.90;;;;;;;-2.74;60.93;100039.69;681201;29;1117;-87
2022/12/14 00:34:24;;;;;;;12.23;7.50;;;;;;;-2.77;60.96;100037.81;680791;29;1049;-85
2022/12/14 00:34:45;;;;;;;12.02;7.95;;;;;;;-2.72;60.91;100044.91;686234;29;1152;-86
2022/12/14 00:35:15;;;;;;;11.77;8.00;;;;;;;-2.67;60.72;100053.78;683613;29;1004;-86
2022/12/14 00:35:35;;;;;;;13.30;8.15;;;;;;;-2.71;60.87;100049.22;685550;29;1048;-86
2022/12/14 00:35:56;;;;;;;13.03;7.80;;;;;;;-2.79;60.62;100033.38;679975;29;1084;-86
2022/12/14 00:36:17;;;;;;;11.68;7.40;;;;;;;-2.66;60.46;100056.44;679548;29;1112;-84
2022/12/14 00:36:38;;;;;;;10.65;6.82;;;;;;;-2.78;60.75;100038.59;679713;29;1014;-86
2022/12/14 00:36:58;;;;;;;10.40;7.00;;;;;;;-2.81;60.49;100032.38;680548;29;769;-85
2022/12/14 00:37:19;;;;;;;11.95;7.30;;;;;;;-2.72;60.65;100044.91;675671;29;1106;-85
2022/12/14 00:37:39;;;;;;;13.30;8.10;;;;;;;-2.80;60.84;100032.50;676016;29;1955;-87
2022/12/14 00:38:00;;;;;;;14.00;8.25;;;;;;;-2.83;60.58;100032.28;675842;29;1249;-86
2022/12/14 00:38:20;;;;;;;14.63;8.57;;;;;;;-2.79;60.89;100028.28;677992;29;1043;-86
2022/12/14 00:38:41;;;;;;;14.47;8.40;;;;;;;-2.78;60.95;100036.03;678482;29;1190;-86
2022/12/14 00:39:14;;;;;;;13.95;7.97;;;;;;;-2.77;60.66;100040.34;681028;29;1013;-86
2022/12/14 00:39:35;;;;;;;11.38;7.03;;;;;;;-2.72;60.89;100044.91;673125;29;1105;-85
2022/12/14 00:39:55;;;;;;;12.43;7.25;;;;;;;-2.78;60.54;100036.03;678374;29;1203;-86
2022/12/14 00:40:16;;;;;;;13.48;7.70;;;;;;;-2.78;60.97;100041.13;680750;29;1005;-87
2022/12/14 00:40:36;;;;;;;13.63;7.87;;;;;;;-2.73;60.87;100044.00;683380;29;1160;-86
2022/12/14 00:40:57;;;;;;;12.23;7.70;;;;;;;-2.71;60.79;100049.22;683586;29;795;-86
2022/12/14 00:41:18;;;;;;;12.70;7.40;;;;;;;-2.74;60.99;100033.72;675516;29;1249;-86
2022/12/14 00:41:38;;;;;;;11.82;7.10;;;;;;;-2.73;60.68;100040.59;680890;29;1172;-87
2022/12/14 00:41:59;;;;;;;12.53;7.50;;;;;;;-2.67;60.83;100048.69;680842;29;800;-85
2022/12/14 00:42:19;;;;;;;11.48;7.32;;;;;;;-2.66;60.92;100046.22;680850;29;1129;-87
2022/12/14 00:42:40;;;;;;;12.00;7.38;;;;;;;-2.72;61.00;100034.69;678165;29;1191;-86
2022/12/14 00:43:00;;;;;;;12.37;7.30;;;;;;;-2.70;61.13;100035.69;681234;29;1289;-86
2022/12/14 00:43:22;;;;;;;13.00;7.45;;;;;;;-2.67;60.89;100043.56;680476;29;1318;-86
2022/12/14 00:43:42;;;;;;;12.55;7.70;;;;;;;-2.73;61.04;100027.81;678072;29;1075;-86
2022/12/14 00:44:03;;;;;;;12.63;7.80;;;;;;;-2.66;60.90;100038.56;677872;29;1120;-86
2022/12/14 00:44:24;;;;;;;13.35;7.88;;;;;;;-2.58;60.72;100049.31;677935;29;1313;-85
2022/12/14 00:44:44;;;;;;;13.05;7.90;;;;;;;-2.64;61.11;100031.00;677967;29;1150;-86
2022/12/14 00:45:07;;;;;;;12.40;7.65;;;;;;;-2.68;60.76;100029.91;677858;29;1154;-86
2022/12/14 00:45:27;;;;;;;12.82;8.02;;;;;;;-2.67;60.66;100031.66;675348;29;1033;-86
2022/12/14 00:45:48;;;;;;;12.30;7.67;;;;;;;-2.60;60.78;100045.75;672849;29;785;-85
2022/12/14 00:46:08;;;;;;;11.60;7.53;;;;;;;-2.62;60.60;100039.66;675372;29;1054;-86
2022/12/14 00:46:29;;;;;;;11.45;7.40;;;;;;;-2.60;60.52;100038.06;680437;29;1419;-86
2022/12/14 00:46:49;;;;;;;12.90;7.90;;;;;;;-2.61;60.58;100040.56;675428;29;1257;-85
2022/12/14 00:47:10;;;;;;;13.10;7.97;;;;;;;-2.67;60.49;100033.34;677820;29;1171;-86
2022/12/14 00:47:30;;;;;;;13.48;8.15;;;;;;;-2.66;60.89;100033.44;683054;29;1026;-87
2022/12/14 00:47:51;;;;;;;13.53;8.00;;;;;;;-2.63;60.39;100040.44;680510;29;749;-87
2022/12/14 00:48:12;;;;;;;13.97;7.90;;;;;;;-2.67;60.34;100023.13;680309;29;1281;-86
2022/12/14 00:48:33;;;;;;;13.38;7.75;;;;;;;-2.65;60.60;100034.34;680554;29;983;-87
2022/12/14 00:48:53;;;;;;;14.43;7.70;;;;;;;-2.59;60.42;100036.44;675322;29;1044;-84
2022/12/14 00:49:15;;;;;;;14.27;8.07;;;;;;;-2.63;60.65;100032.78;682961;29;1248;-86
2022/12/14 00:49:36;;;;;;;15.55;8.45;;;;;;;-2.54;60.32;100046.19;675101;29;1290;-86
2022/12/14 00:49:56;;;;;;;12.93;8.02;;;;;;;-2.61;60.63;100031.19;675263;29;1304;-86
2022/12/14 00:50:17;;;;;;;12.97;7.87;;;;;;;-2.58;60.29;100033.09;685678;28;1099;-86
2022/12/14 00:50:38;;;;;;;11.52;7.15;;;;;;;-2.61;60.23;100023.53;680352;29;1154;-87
2022/12/14 00:50:59;;;;;;;12.88;7.50;;;;;;;-2.59;60.30;100022.00;672533;29;1365;-85
2022/12/14 00:51:19;;;;;;;11.68;7.10;;;;;;;-2.58;60.22;100030.53;675062;29;1489;-86
2022/12/14 00:51:40;;;;;;;11.65;7.00;;;;;;;-2.60;60.21;100017.66;675034;29;993;-86
2022/12/14 00:52:00;;;;;;;10.60;6.90;;;;;;;-2.53;60.11;100034.31;675270;29;721;-86
2022/12/14 00:52:21;;;;;;;10.93;7.35;;;;;;;-2.59;60.11;100019.44;677423;29;1313;-86
2022/12/14 00:52:42;;;;;;;11.13;7.40;;;;;;;-2.55;60.07;100028.22;677817;29;756;-86
2022/12/14 00:53:02;;;;;;;13.10;7.95;;;;;;;-2.50;59.93;100037.94;677740;29;1171;-86
2022/12/14 00:53:24;;;;;;;13.53;7.70;;;;;;;-2.61;60.03;100013.31;677774;29;1087;-87
2022/12/14 00:53:45;;;;;;;12.63;7.68;;;;;;;-2.56;60.34;100027.31;675210;29;827;-86
2022/12/14 00:54:05;;;;;;;11.07;7.28;;;;;;;-2.57;59.92;100025.53;677731;29;1176;-86
2022/12/14 00:54:26;;;;;;;11.02;7.38;;;;;;;-2.60;60.17;100024.44;674907;29;1328;-86
2022/12/14 00:54:46;;;;;;;12.00;7.30;;;;;;;-2.60;60.22;100021.88;680509;29;1165;-86
2022/12/14 00:55:07;;;;;;;12.40;7.70;;;;;;;-2.53;60.20;100035.16;680435;29;1013;-86
2022/12/14 00:55:28;;;;;;;14.13;8.00;;;;;;;-2.62;60.30;100024.31;680161;29;1371;-86
2022/12/14 00:55:49;;;;;;;14.32;7.85;;;;;;;-2.62;60.13;100019.22;677886;29;1278;-86
2022/12/14 00:56:10;;;;;;;13.05;7.05;;;;;;;-2.58;59.93;100023.78;675153;29;1131;-86
2022/12/14 00:56:30;;;;;;;12.43;7.38;;;;;;;-2.60;59.85;100025.31;675098;29;934;-86
2022/12/14 00:56:51;;;;;;;12.23;7.50;;;;;;;-2.60;60.10;100016.78;675202;29;1196;-86
2022/12/14 00:57:11;;;;;;;14.20;8.30;;;;;;;-2.58;59.95;100028.88;677861;29;1001;-86
2022/12/14 00:57:32;;;;;;;13.38;7.82;;;;;;;-2.60;60.15;100024.44;680217;29;1907;-86
2022/12/14 00:57:52;;;;;;;13.03;7.53;;;;;;;-2.57;59.91;100025.53;680381;29;1136;-86
2022/12/14 00:58:15;;;;;;;11.10;7.00;;;;;;;-2.65;59.86;100019.00;677791;29;1097;-86
2022/12/14 00:58:36;;;;;;;10.82;7.00;;;;;;;-2.64;60.12;100015.69;677553;29;1258;-86
2022/12/14 00:58:56;;;;;;;10.53;7.10;;;;;;;-2.68;60.30;100011.13;675257;29;756;-86
2022/12/14 00:59:17;;;;;;;12.83;7.50;;;;;;;-2.61;60.11;100022.66;672430;29;1297;-85
2022/12/14 00:59:38;;;;;;;13.27;7.60;;;;;;;-2.69;60.03;100015.38;677576;29;1052;-86
2022/12/14 00:59:58;;;;;;;12.35;7.55;;;;;;;-2.58;60.33;100039.09;680372;29;1193;-87
2022/12/14 01:00:32;;;;;;;10.27;7.22;;;;;;;-2.61;59.98;100023.53;682916;29;1079;-86
2022/12/14 01:01:04;;;;;;;11.30;7.30;;;;;;;-2.70;60.15;100010.13;680437;29;854;-86
2022/12/14 01:01:24;;;;;;;11.80;7.20;;;;;;;-2.68;60.29;100018.78;674991;29;1154;-86
2022/12/14 01:01:45;;;;;;;12.48;7.32;;;;;;;-2.68;60.42;100019.69;677766;29;1260;-86
2022/12/14 01:02:05;;;;;;;12.80;7.17;;;;;;;-2.74;59.91;100006.47;680374;29;1223;-86
2022/12/14 01:02:26;;;;;;;12.20;7.30;;;;;;;-2.64;60.05;100023.34;674924;29;1213;-86
2022/12/14 01:02:46;;;;;;;12.75;7.80;;;;;;;-2.67;60.33;100015.47;677835;29;827;-86
2022/12/14 01:03:13;;;;;;;13.05;7.88;;;;;;;-2.71;60.17;100010.91;677689;29;1384;-86
2022/12/14 01:03:34;;;;;;;12.98;7.57;;;;;;;-2.62;60.22;100026.88;680315;29;1132;-86
2022/12/14 01:04:15;;;;;;;12.60;7.53;;;;;;;-2.63;60.16;100027.66;680262;29;1205;-87
2022/12/14 01:04:36;;;;;;;12.13;7.45;;;;;;;-2.63;60.22;100035.31;680198;29;1246;-87
2022/12/14 01:04:57;;;;;;;11.23;6.80;;;;;;;-2.72;60.17;100014.25;674953;29;1311;-87
2022/12/14 01:05:17;;;;;;;11.85;7.00;;;;;;;-2.70;59.93;100015.25;672286;29;1131;-86
2022/12/14 01:05:38;;;;;;;12.27;7.13;;;;;;;-2.61;59.77;100036.31;674975;29;1267;-86
2022/12/14 01:05:59;;;;;;;13.93;7.63;;;;;;;-2.72;60.01;100015.13;672553;29;1053;-86
2022/12/14 01:06:21;;;;;;;13.18;7.50;;;;;;;-2.69;60.04;100017.00;674814;29;1223;-86
2022/12/14 01:06:44;;;;;;;11.98;7.50;;;;;;;-2.74;60.08;100016.69;680275;29;1338;-86
2022/12/14 01:07:05;;;;;;;11.35;7.50;;;;;;;-2.77;60.16;100017.38;679609;29;1439;-86
2022/12/14 01:07:25;;;;;;;11.80;7.57;;;;;;;-2.68;59.93;100023.88;674920;29;1160;-86
2022/12/14 01:07:46;;;;;;;12.35;7.43;;;;;;;-2.72;59.99;100014.25;675071;29;762;-87
2022/12/14 01:08:07;;;;;;;12.95;7.20;;;;;;;-2.78;59.93;100004.50;680265;29;1020;-86
2022/12/14 01:08:34;;;;;;;14.15;7.13;;;;;;;-2.78;59.98;100010.50;677491;29;1487;-87
2022/12/14 01:08:54;;;;;;;12.80;6.90;;;;;;;-2.72;60.25;100015.13;677759;29;1201;-86
2022/12/14 01:09:15;;;;;;;13.17;7.30;;;;;;;-2.67;59.99;100023.13;677581;29;1095;-86
2022/12/14 01:09:36;;;;;;;13.40;7.43;;;;;;;-2.72;60.35;100015.13;677765;29;1183;-86
2022/12/14 01:09:56;;;;;;;15.23;7.67;;;;;;;-2.75;60.00;100008.91;680532;29;763;-86
2022/12/14 01:10:17;;;;;;;14.32;7.72;;;;;;;-2.74;60.13;100015.84;680285;29;1023;-87
2022/12/14 01:10:39;;;;;;;14.43;7.88;;;;;;;-2.78;60.06;100000.28;677668;29;1087;-86
2022/12/14 01:11:05;;;;;;;12.20;7.55;;;;;;;-2.64;60.25;100020.78;680391;29;1182;-86
2022/12/14 01:11:25;;;;;;;11.48;7.22;;;;;;;-2.79;60.28;99998.50;677653;29;1064;-86
2022/12/14 01:11:47;;;;;;;10.70;6.63;;;;;;;-2.64;60.31;100024.22;677682;29;1153;-86
2022/12/14 01:12:07;;;;;;;10.93;7.10;;;;;;;-2.74;60.07;100010.72;675093;29;1330;-86
2022/12/14 01:12:28;;;;;;;11.75;7.40;;;;;;;-2.77;60.11;100002.03;677589;29;1110;-86
2022/12/14 01:12:49;;;;;;;12.27;7.67;;;;;;;-2.72;60.13;100009.16;677884;29;756;-86
2022/12/14 01:13:10;;;;;;;13.10;7.57;;;;;;;-2.73;60.19;100008.25;680298;29;1240;-86
2022/12/14 01:13:31;;;;;;;11.65;7.10;;;;;;;-2.63;60.06;100025.09;680535;29;1385;-86
2022/12/14 01:13:55;;;;;;;12.13;7.43;;;;;;;-2.63;59.99;100022.56;675269;29;898;-86
2022/12/14 01:14:18;;;;;;;11.95;7.60;;;;;;;-2.70;59.92;100003.38;672493;29;1218;-86
2022/12/14 01:14:38;;;;;;;11.05;7.25;;;;;;;-2.64;59.99;100015.69;674904;29;1199;-86
2022/12/14 01:14:59;;;;;;;10.07;6.93;;;;;;;-2.73;60.63;100000.59;677780;29;1291;-86
2022/12/14 01:15:20;;;;;;;11.50;6.90;;;;;;;-2.60;59.90;100019.31;680188;29;988;-86
2022/12/14 01:15:40;;;;;;;12.05;7.22;;;;;;;-2.70;59.82;100003.38;680281;29;1324;-86
2022/12/14 01:16:13;;;;;;;13.65;7.20;;;;;;;-2.68;59.83;99999.25;677758;29;1280;-86
2022/12/14 01:16:33;;;;;;;13.57;7.35;;;;;;;-2.70;60.08;99994.81;674883;29;1352;-86
2022/12/14 01:16:54;;;;;;;12.68;7.68;;;;;;;-2.67;59.81;100002.72;677660;29;966;-86
2022/12/14 01:17:15;;;;;;;12.50;7.80;;;;;;;-2.60;59.77;100009.13;677596;29;1131;-86
2022/12/14 01:17:36;;;;;;;11.90;7.55;;;;;;;-2.65;59.93;100001.13;677537;29;1980;-86
2022/12/14 01:17:56;;;;;;;11.30;7.28;;;;;;;-2.62;59.78;100009.00;677664;29;1198;-87
2022/12/14 01:18:17;;;;;;;11.63;6.93;;;;;;;-2.68;59.85;99998.34;677700;29;1049;-86
2022/12/14 01:18:39;;;;;;;11.77;6.68;;;;;;;-2.67;59.99;99995.03;682722;28;1283;-86
2022/12/14 01:19:00;;;;;;;12.35;7.07;;;;;;;-2.60;59.91;100006.56;677807;29;765;-86
2022/12/14 01:19:21;;;;;;;11.73;7.40;;;;;;;-2.67;60.08;100002.72;677498;29;1151;-86
2022/12/14 01:19:41;;;;;;;11.35;7.93;;;;;;;-2.71;59.81;99995.59;677621;29;1132;-86
2022/12/14 01:20:03;;;;;;;10.47;7.60;;;;;;;-2.73;60.01;99999.72;677649;29;1238;-86
2022/12/14 01:20:23;;;;;;;10.75;7.60;;;;;;;-2.71;60.14;99996.50;672373;29;1152;-86
2022/12/14 01:20:44;;;;;;;10.07;7.17;;;;;;;-2.77;60.07;99993.50;672639;29;1262;-87
2022/12/14 01:21:27;;;;;;;10.73;7.30;;;;;;;-2.72;60.24;99997.25;675094;29;1320;-86
2022/12/14 01:21:47;;;;;;;12.27;7.18;;;;;;;-2.73;59.99;99997.16;675094;29;1233;-87
2022/12/14 01:22:09;;;;;;;12.38;7.18;;;;;;;-2.79;59.93;99988.28;675026;29;1118;-87
2022/12/14 01:22:29;;;;;;;11.25;7.13;;;;;;;-2.80;59.80;99989.06;677521;29;1214;-86
2022/12/14 01:22:57;;;;;;;11.57;6.90;;;;;;;-2.79;60.07;99987.41;675083;29;1182;-86
2022/12/14 01:23:17;;;;;;;11.35;7.30;;;;;;;-2.81;60.24;99988.97;675117;29;1272;-87
2022/12/14 01:23:39;;;;;;;10.23;7.20;;;;;;;-2.81;60.49;99989.88;677641;29;1374;-87
2022/12/14 01:24:02;;;;;;;11.90;7.72;;;;;;;-2.80;59.93;99985.63;677718;29;1106;-86
2022/12/14 01:24:23;;;;;;;12.05;7.55;;;;;;;-2.79;60.31;99997.63;672250;29;1251;-86
2022/12/14 01:24:43;;;;;;;12.30;7.70;;;;;;;-2.84;60.36;99989.63;672447;29;1241;-86
2022/12/14 01:25:05;;;;;;;12.00;7.60;;;;;;;-2.77;60.36;99990.97;674967;29;1065;-86
2022/12/14 01:25:25;;;;;;;13.17;8.20;;;;;;;-2.83;60.20;99986.31;677551;29;1264;-87
2022/12/14 01:25:46;;;;;;;13.93;8.23;;;;;;;-2.78;60.38;99997.72;677768;29;1028;-86
2022/12/14 01:26:11;;;;;;;14.75;8.07;;;;;;;-2.79;60.38;99997.63;680302;29;1301;-87
2022/12/14 01:26:36;;;;;;;14.20;7.70;;;;;;;-2.86;60.40;99980.13;685483;28;1374;-86
2022/12/14 01:26:56;;;;;;;14.38;7.90;;;;;;;-2.82;60.44;99985.53;682967;29;776;-86
2022/12/14 01:27:17;;;;;;;12.90;7.57;;;;;;;-2.77;60.67;99996.06;680405;29;1211;-87
2022/12/14 01:27:38;;;;;;;12.13;7.40;;;;;;;-2.85;60.69;99992.09;677024;29;1363;-86
2022/12/14 01:27:58;;;;;;;12.20;7.53;;;;;;;-2.80;60.83;99994.19;677671;29;1216;-86
2022/12/14 01:28:19;;;;;;;12.32;7.60;;;;;;;-2.78;60.67;99990.06;674961;29;1332;-87
2022/12/14 01:28:40;;;;;;;13.03;7.77;;;;;;;-2.76;60.81;99997.84;669932;29;1276;-87
2022/12/14 01:29:01;;;;;;;14.00;7.95;;;;;;;-2.77;60.92;99994.38;675039;29;1230;-86
2022/12/14 01:29:22;;;;;;;13.35;8.20;;;;;;;-2.81;60.59;99982.19;677686;29;1109;-87
2022/12/14 01:29:43;;;;;;;13.15;7.97;;;;;;;-2.74;60.76;99995.41;675094;29;1295;-86
2022/12/14 01:30:04;;;;;;;13.02;7.82;;;;;;;-2.83;60.51;99970.09;675151;29;1029;-86
2022/12/14 01:30:25;;;;;;;13.93;7.68;;;;;;;-2.80;60.41;99986.53;680136;29;1020;-86
2022/12/14 01:30:45;;;;;;;14.60;7.90;;;;;;;-2.78;60.64;99989.19;680309;29;851;-87
2022/12/14 01:31:10;;;;;;;12.98;7.57;;;;;;;-2.72;60.51;99994.69;677654;29;1265;-86
2022/12/14 01:31:33;;;;;;;13.07;7.50;;;;;;;-2.75;60.37;99983.38;677501;29;1087;-87
2022/12/14 01:31:53;;;;;;;11.63;7.10;;;;;;;-2.74;60.54;99993.72;680279;29;867;-86
2022/12/14 01:32:14;;;;;;;11.25;7.45;;;;;;;-2.85;60.55;99975.09;682848;29;1187;-86
2022/12/14 01:32:34;;;;;;;11.18;7.90;;;;;;;-2.84;60.50;99976.84;680123;29;1073;-86
2022/12/14 01:32:55;;;;;;;11.87;8.37;;;;;;;-2.74;60.61;99990.28;680283;29;1150;-87
2022/12/14 01:33:15;;;;;;;11.45;7.80;;;;;;;-2.86;60.62;99975.00;675019;29;1339;-87
2022/12/14 01:33:36;;;;;;;10.48;7.57;;;;;;;-2.82;60.57;99976.97;674960;29;1143;-87
2022/12/14 01:33:57;;;;;;;11.33;7.67;;;;;;;-2.83;60.50;99980.31;674930;29;1151;-86
2022/12/14 01:34:18;;;;;;;13.27;8.23;;;;;;;-2.85;60.86;99975.09;674986;29;1163;-87
2022/12/14 01:34:38;;;;;;;15.63;8.50;;;;;;;-2.87;60.60;99970.66;675041;29;1180;-86
2022/12/14 01:34:59;;;;;;;16.23;8.40;;;;;;;-2.78;60.59;99984.94;677674;29;1096;-86
2022/12/14 01:35:20;;;;;;;15.43;8.20;;;;;;;-2.80;60.56;99983.06;675284;29;1193;-87
2022/12/14 01:35:41;;;;;;;13.20;7.70;;;;;;;-2.87;60.93;99976.66;674989;29;1305;-86
2022/12/14 01:36:13;;;;;;;12.55;7.90;;;;;;;-2.94;60.87;99965.16;675071;29;832;-86
2022/12/14 01:36:35;;;;;;;11.40;7.90;;;;;;;-2.89;60.90;99978.22;674806;29;1125;-87
2022/12/14 01:36:56;;;;;;;10.93;7.60;;;;;;;-2.90;60.99;99968.81;675138;29;1261;-87
2022/12/14 01:37:16;;;;;;;11.45;7.70;;;;;;;-2.87;61.12;99974.09;677478;29;1301;-86
2022/12/14 01:37:37;;;;;;;13.35;7.85;;;;;;;-2.88;61.19;99979.09;677397;29;1966;-86
2022/12/14 01:37:57;;;;;;;14.10;8.27;;;;;;;-2.93;60.97;99966.00;674853;29;860;-86
2022/12/14 01:38:18;;;;;;;14.35;8.20;;;;;;;-2.93;60.97;99964.38;672334;29;1157;-86
2022/12/14 01:38:39;;;;;;;13.65;8.10;;;;;;;-2.84;60.95;99981.09;674938;29;1252;-87
2022/12/14 01:39:12;;;;;;;13.30;8.23;;;;;;;-3.00;61.23;99956.16;675085;29;1312;-87
2022/12/14 01:39:33;;;;;;;13.38;8.60;;;;;;;-2.90;61.00;99973.91;672311;29;1270;-86
2022/12/14 01:39:53;;;;;;;13.20;8.10;;;;;;;-2.96;61.28;99968.38;672600;29;809;-86
2022/12/14 01:40:14;;;;;;;12.07;7.60;;;;;;;-2.85;61.28;99981.88;675120;29;1324;-86
2022/12/14 01:40:34;;;;;;;11.93;7.60;;;;;;;-2.89;61.11;99975.69;680160;29;1100;-86
2022/12/14 01:40:59;;;;;;;12.07;7.70;;;;;;;-2.92;61.09;99962.69;677725;29;1209;-86
2022/12/14 01:41:27;;;;;;;12.82;7.63;;;;;;;-2.95;61.18;99967.59;680119;29;1294;-86
2022/12/14 01:41:51;;;;;;;13.25;7.60;;;;;;;-2.92;61.14;99963.56;680245;29;1210;-86
2022/12/14 01:42:14;;;;;;;13.48;7.53;;;;;;;-2.95;61.17;99970.13;674972;29;1273;-86